Aeroporto :
LOGIN :

Iscrizione | Disclaimer

   EN    FR    IT 

 










Sommario :    VFR   VFR Marginale   IFR   IFR Intensivo   IFR Molto Intensivo
Visibilità : 
Base nubi : 
>= 8 km
>= 3000ft
5 / 8 km
1000 / 3000 ft
1500m / 5 km
500 / 1000 ft
800 / 1500m
200 / 500 ft
< 800m
< 200 ft
Simboli :   Temporali  Nebbia  Neve Forte  Precipitazioni Forti  Vento > 20 kt
SIGMETs :   Varie  Temporali  Ghiacco  Turbolenza  Onda orograficha  Ceneri Vulcaniche






- Altitudine del aeroporto : 200 ft


EBBL - Klein Brogel AB

ULTIMO METAR :
  • 131555Z AUTO 25009KT 9999 BKN032/// BKN074/// 19/11 Q1013 BLU

METARs OBSOLETI :
  • 131525Z AUTO 26008KT 9999 BKN031/// BKN077/// 18/12 Q1013 BLU
  • 131455Z AUTO 25011KT 9999 BKN034/// BKN074/// 19/11 Q1013 BLU
  • 131425Z AUTO 26010KT 9999 BKN033/// 20/11 Q1012 BLU
  • 131355Z AUTO 25013KT 9999 SCT033/// BKN077/// 18/10 Q1013 BLU
  • 131325Z AUTO 25010KT 9999 BKN035/// BKN072/// 19/12 Q1013 BLU
  • 131255Z AUTO 25013KT 9999 BKN035/// 19/12 Q1013 BLU
  • 131225Z AUTO 25011KT 9999 FEW044/// BKN066/// 19/11 Q1013 BLU
  • 131155Z AUTO 24011KT 9999 OVC038/// 17/11 Q1013 BLU
  • 131125Z AUTO 23014KT 9999 FEW024/// BKN032/// 17/11 Q1013 BLU

TAF TAF EBBL
Valido dal 13 a 13 ore il 13 a 22 ore UTC


131141Z 1313/1322 25010G22KT 9999 BKN035
PROB30
TEMPO 1313/1316 6000 -SHRA
BECMG 1317/1319 27006KT



MetMap, La meteo Aeronautica in un colpo d'occhio ! - Copyright ORBIFLY Dicembre 2007 - Disclaimer

ORBIFLY MET'MAP TEAM :

Programmazione e sviluppo : Alexandra Zaïnal
Concezione : Baudouin d'Aumeries
Supporto tecnico e logistico : Manuel Goepfert
Aiuto : Marc-Olivier Méhu
Aiuto per la traduzione : Arnaldo La Scala




FONTI E CREDITI :

   NOAA